Terminal Aerodrome Forecast
Issued by NWS Charleston, WV

Current Version | Previous Version | Graphics & Text | Print | Product List | Glossary On
Versions: 1 2 3 4 5 6 7 8 9 10 11 12 13 14 15 16 17 18 19 20 21 22
000
FTUS41 KRLX 151459 AAC
TAFBKW
TAF AMD
KBKW 151459Z 1515/1612 VRB03KT P6SM VCSH BKN015
     FM151800 31004KT P6SM BKN025
     FM152300 33005KT P6SM SCT025
     FM160600 00000KT 2SM BR SCT001
     FM160800 00000KT 1/2SM FG VV001=

USA.gov is the U.S. government's official web portal to all federal, state and local government web resources and services.